sensor_id;sensor_type;location;lat;lon;timestamp;pressure;altitude;pressure_sealevel;temperature;humidity
61961;BME280;47923;42.506;24.192;2022-12-18T00:01:26;95914.47;;;3.14;100.00
61961;BME280;47923;42.506;24.192;2022-12-18T00:03:53;95892.56;;;3.03;100.00
61961;BME280;47923;42.506;24.192;2022-12-18T00:06:21;95969.03;;;3.49;100.00
61961;BME280;47923;42.506;24.192;2022-12-18T00:08:47;96029.63;;;3.90;100.00
61961;BME280;47923;42.506;24.192;2022-12-18T00:11:18;96121.94;;;4.46;100.00
61961;BME280;47923;42.506;24.192;2022-12-18T00:13:44;96123.66;;;4.42;100.00
61961;BME280;47923;42.506;24.192;2022-12-18T00:16:15;96129.00;;;4.42;100.00
61961;BME280;47923;42.506;24.192;2022-12-18T00:18:42;96131.69;;;4.42;100.00
61961;BME280;47923;42.506;24.192;2022-12-18T00:21:09;95873.41;;;2.74;100.00
61961;BME280;47923;42.506;24.192;2022-12-18T00:23:36;96147.13;;;4.45;100.00
61961;BME280;47923;42.506;24.192;2022-12-18T00:26:07;96141.00;;;4.44;100.00
61961;BME280;47923;42.506;24.192;2022-12-18T00:28:33;96124.00;;;4.27;100.00
61961;BME280;47923;42.506;24.192;2022-12-18T00:31:10;96155.16;;;4.45;100.00
61961;BME280;47923;42.506;24.192;2022-12-18T00:33:37;96066.25;;;3.90;100.00
61961;BME280;47923;42.506;24.192;2022-12-18T00:36:26;96154.69;;;4.43;100.00
61961;BME280;47923;42.506;24.192;2022-12-18T00:38:53;96155.56;;;4.38;100.00
61961;BME280;47923;42.506;24.192;2022-12-18T00:41:19;96146.56;;;4.34;100.00
61961;BME280;47923;42.506;24.192;2022-12-18T00:44:05;96056.88;;;3.65;100.00
61961;BME280;47923;42.506;24.192;2022-12-18T00:46:31;95986.97;;;3.08;100.00
61961;BME280;47923;42.506;24.192;2022-12-18T00:48:57;95796.31;;;1.76;100.00
61961;BME280;47923;42.506;24.192;2022-12-18T00:51:23;96109.59;;;3.86;100.00
61961;BME280;47923;42.506;24.192;2022-12-18T00:53:49;95940.13;;;2.74;100.00
61961;BME280;47923;42.506;24.192;2022-12-18T00:56:14;95906.22;;;2.47;100.00
61961;BME280;47923;42.506;24.192;2022-12-18T00:58:40;96150.69;;;4.04;100.00
61961;BME280;47923;42.506;24.192;2022-12-18T01:01:06;96148.41;;;3.98;100.00
61961;BME280;47923;42.506;24.192;2022-12-18T01:03:32;96142.06;;;3.80;100.00
61961;BME280;47923;42.506;24.192;2022-12-18T01:05:58;96153.16;;;3.87;100.00
61961;BME280;47923;42.506;24.192;2022-12-18T01:08:23;95545.75;;;-0.21;100.00
61961;BME280;47923;42.506;24.192;2022-12-18T01:10:49;96160.88;;;3.88;100.00
61961;BME280;47923;42.506;24.192;2022-12-18T01:13:14;96103.38;;;3.50;100.00
61961;BME280;47923;42.506;24.192;2022-12-18T01:15:40;96161.00;;;3.83;100.00
61961;BME280;47923;42.506;24.192;2022-12-18T01:18:06;96052.53;;;3.14;100.00
61961;BME280;47923;42.506;24.192;2022-12-18T01:20:32;96129.81;;;3.51;100.00
61961;BME280;47923;42.506;24.192;2022-12-18T01:22:57;96099.22;;;3.30;100.00
61961;BME280;47923;42.506;24.192;2022-12-18T01:25:23;95842.47;;;1.58;100.00
61961;BME280;47923;42.506;24.192;2022-12-18T01:27:48;95813.97;;;1.39;100.00
61961;BME280;47923;42.506;24.192;2022-12-18T01:30:13;96172.00;;;3.68;100.00
61961;BME280;47923;42.506;24.192;2022-12-18T01:32:39;96026.78;;;2.76;100.00
61961;BME280;47923;42.506;24.192;2022-12-18T01:35:05;95901.06;;;1.90;100.00
61961;BME280;47923;42.506;24.192;2022-12-18T01:37:30;95855.47;;;1.59;100.00
61961;BME280;47923;42.506;24.192;2022-12-18T01:39:56;96174.44;;;3.65;100.00
61961;BME280;47923;42.506;24.192;2022-12-18T01:42:21;96167.72;;;3.67;100.00
61961;BME280;47923;42.506;24.192;2022-12-18T01:45:03;96175.94;;;3.71;100.00
61961;BME280;47923;42.506;24.192;2022-12-18T01:52:53;96165.63;;;3.64;100.00
61961;BME280;47923;42.506;24.192;2022-12-18T01:55:22;96174.44;;;3.65;100.00
61961;BME280;47923;42.506;24.192;2022-12-18T01:57:51;96171.78;;;3.65;100.00
61961;BME280;47923;42.506;24.192;2022-12-18T02:00:20;96177.03;;;3.70;100.00
61961;BME280;47923;42.506;24.192;2022-12-18T02:02:46;96165.56;;;3.69;100.00
61961;BME280;47923;42.506;24.192;2022-12-18T02:05:15;96107.94;;;3.36;100.00
61961;BME280;47923;42.506;24.192;2022-12-18T02:10:48;96167.72;;;3.81;100.00
61961;BME280;47923;42.506;24.192;2022-12-18T02:13:20;96168.91;;;3.88;100.00
61961;BME280;47923;42.506;24.192;2022-12-18T02:18:37;96165.13;;;4.03;100.00
61961;BME280;47923;42.506;24.192;2022-12-18T02:21:24;96078.84;;;3.48;100.00
61961;BME280;47923;42.506;24.192;2022-12-18T02:26:37;96156.44;;;3.98;100.00
61961;BME280;47923;42.506;24.192;2022-12-18T02:29:12;96051.06;;;3.35;100.00
61961;BME280;47923;42.506;24.192;2022-12-18T02:31:45;96187.50;;;4.21;100.00
61961;BME280;47923;42.506;24.192;2022-12-18T02:34:13;96180.28;;;4.22;100.00
61961;BME280;47923;42.506;24.192;2022-12-18T02:36:40;96164.16;;;4.13;100.00
61961;BME280;47923;42.506;24.192;2022-12-18T02:39:09;96174.53;;;4.14;100.00
61961;BME280;47923;42.506;24.192;2022-12-18T02:41:36;96089.53;;;3.34;100.00
61961;BME280;47923;42.506;24.192;2022-12-18T02:44:08;96195.31;;;4.18;100.00
61961;BME280;47923;42.506;24.192;2022-12-18T02:46:40;96187.50;;;4.21;100.00
61961;BME280;47923;42.506;24.192;2022-12-18T02:52:17;96169.69;;;4.16;100.00
61961;BME280;47923;42.506;24.192;2022-12-18T02:57:45;96195.59;;;4.43;100.00
61961;BME280;47923;42.506;24.192;2022-12-18T03:00:19;96151.56;;;4.13;100.00
61961;BME280;47923;42.506;24.192;2022-12-18T03:05:22;96200.06;;;4.48;100.00
61961;BME280;47923;42.506;24.192;2022-12-18T03:08:10;96197.97;;;4.45;100.00
61961;BME280;47923;42.506;24.192;2022-12-18T03:13:23;96213.16;;;4.36;100.00
61961;BME280;47923;42.506;24.192;2022-12-18T03:15:54;96212.94;;;4.32;100.00
61961;BME280;47923;42.506;24.192;2022-12-18T03:18:25;96187.53;;;4.07;100.00
61961;BME280;47923;42.506;24.192;2022-12-18T03:20:53;96211.59;;;4.21;100.00
61961;BME280;47923;42.506;24.192;2022-12-18T03:23:24;96084.28;;;3.29;100.00
61961;BME280;47923;42.506;24.192;2022-12-18T03:25:53;96222.28;;;4.07;100.00
61961;BME280;47923;42.506;24.192;2022-12-18T03:28:21;96030.94;;;2.83;100.00
61961;BME280;47923;42.506;24.192;2022-12-18T03:30:52;96110.50;;;3.27;100.00
61961;BME280;47923;42.506;24.192;2022-12-18T03:33:27;96088.22;;;3.04;100.00
61961;BME280;47923;42.506;24.192;2022-12-18T03:35:55;96234.66;;;3.90;100.00
61961;BME280;47923;42.506;24.192;2022-12-18T03:38:21;96174.13;;;3.52;100.00
61961;BME280;47923;42.506;24.192;2022-12-18T03:46:40;96084.78;;;2.71;100.00
61961;BME280;47923;42.506;24.192;2022-12-18T03:49:14;96249.59;;;3.77;100.00
61961;BME280;47923;42.506;24.192;2022-12-18T03:51:59;96254.16;;;3.76;100.00
61961;BME280;47923;42.506;24.192;2022-12-18T03:54:28;96240.53;;;3.59;100.00
61961;BME280;47923;42.506;24.192;2022-12-18T03:56:58;96203.13;;;3.45;100.00
61961;BME280;47923;42.506;24.192;2022-12-18T03:59:27;96253.25;;;3.81;100.00
61961;BME280;47923;42.506;24.192;2022-12-18T04:01:56;96154.47;;;3.16;100.00
61961;BME280;47923;42.506;24.192;2022-12-18T04:04:24;96260.59;;;3.75;100.00
61961;BME280;47923;42.506;24.192;2022-12-18T04:06:53;96202.38;;;3.26;100.00
61961;BME280;47923;42.506;24.192;2022-12-18T04:09:19;96249.34;;;3.46;100.00
61961;BME280;47923;42.506;24.192;2022-12-18T04:11:46;95890.03;;;1.08;100.00
61961;BME280;47923;42.506;24.192;2022-12-18T04:14:12;96273.81;;;3.67;100.00
61961;BME280;47923;42.506;24.192;2022-12-18T04:16:38;96227.75;;;3.42;100.00
61961;BME280;47923;42.506;24.192;2022-12-18T04:19:04;96153.63;;;2.88;100.00
61961;BME280;47923;42.506;24.192;2022-12-18T04:21:29;96286.94;;;3.96;100.00
61961;BME280;47923;42.506;24.192;2022-12-18T04:23:55;96211.53;;;3.39;100.00
61961;BME280;47923;42.506;24.192;2022-12-18T04:26:20;96200.81;;;3.25;100.00
61961;BME280;47923;42.506;24.192;2022-12-18T04:28:46;96293.22;;;3.72;100.00
61961;BME280;47923;42.506;24.192;2022-12-18T04:31:11;96292.63;;;3.62;100.00
61961;BME280;47923;42.506;24.192;2022-12-18T04:33:37;96263.44;;;3.32;100.00
61961;BME280;47923;42.506;24.192;2022-12-18T04:36:02;96305.72;;;3.44;100.00
61961;BME280;47923;42.506;24.192;2022-12-18T04:38:28;96292.53;;;3.15;100.00
61961;BME280;47923;42.506;24.192;2022-12-18T04:40:53;96311.09;;;3.25;100.00
61961;BME280;47923;42.506;24.192;2022-12-18T04:43:19;96313.81;;;3.20;100.00
61961;BME280;47923;42.506;24.192;2022-12-18T04:45:44;96290.09;;;3.00;100.00
61961;BME280;47923;42.506;24.192;2022-12-18T04:48:09;96142.84;;;2.04;100.00
61961;BME280;47923;42.506;24.192;2022-12-18T04:50:35;96312.31;;;3.14;100.00
61961;BME280;47923;42.506;24.192;2022-12-18T04:53:00;96257.69;;;2.69;100.00
61961;BME280;47923;42.506;24.192;2022-12-18T04:55:26;96306.69;;;2.97;100.00
61961;BME280;47923;42.506;24.192;2022-12-18T04:57:52;96325.75;;;3.09;100.00
61961;BME280;47923;42.506;24.192;2022-12-18T05:00:17;96343.78;;;2.98;100.00
61961;BME280;47923;42.506;24.192;2022-12-18T05:02:43;96341.00;;;2.85;100.00
61961;BME280;47923;42.506;24.192;2022-12-18T05:05:08;96341.94;;;2.75;100.00
61961;BME280;47923;42.506;24.192;2022-12-18T05:07:34;96347.13;;;2.66;100.00
61961;BME280;47923;42.506;24.192;2022-12-18T05:10:00;96288.19;;;2.20;100.00
61961;BME280;47923;42.506;24.192;2022-12-18T05:12:25;96356.91;;;2.52;100.00
61961;BME280;47923;42.506;24.192;2022-12-18T05:14:51;96121.66;;;0.98;100.00
61961;BME280;47923;42.506;24.192;2022-12-18T05:17:17;96311.97;;;2.16;100.00
61961;BME280;47923;42.506;24.192;2022-12-18T05:19:42;96234.25;;;1.56;100.00
61961;BME280;47923;42.506;24.192;2022-12-18T05:22:08;96239.69;;;1.70;100.00
61961;BME280;47923;42.506;24.192;2022-12-18T05:24:33;96197.16;;;1.36;100.00
61961;BME280;47923;42.506;24.192;2022-12-18T05:26:59;96350.81;;;2.22;100.00
61961;BME280;47923;42.506;24.192;2022-12-18T05:29:24;96238.59;;;1.47;100.00
61961;BME280;47923;42.506;24.192;2022-12-18T05:31:50;96104.47;;;0.56;100.00
61961;BME280;47923;42.506;24.192;2022-12-18T05:34:16;96349.63;;;2.10;100.00
61961;BME280;47923;42.506;24.192;2022-12-18T05:36:41;95867.34;;;-1.01;100.00
61961;BME280;47923;42.506;24.192;2022-12-18T05:39:07;96381.38;;;2.35;100.00
61961;BME280;47923;42.506;24.192;2022-12-18T05:41:32;96171.94;;;0.99;100.00
61961;BME280;47923;42.506;24.192;2022-12-18T05:43:58;96150.50;;;0.86;100.00
61961;BME280;47923;42.506;24.192;2022-12-18T05:46:24;96389.75;;;2.47;100.00
61961;BME280;47923;42.506;24.192;2022-12-18T05:48:50;96334.44;;;2.05;100.00
61961;BME280;47923;42.506;24.192;2022-12-18T05:51:18;96349.69;;;2.29;100.00
61961;BME280;47923;42.506;24.192;2022-12-18T05:53:43;96308.63;;;2.06;100.00
61961;BME280;47923;42.506;24.192;2022-12-18T05:56:17;96391.06;;;2.74;100.00
61961;BME280;47923;42.506;24.192;2022-12-18T05:58:43;96314.75;;;2.30;100.00
61961;BME280;47923;42.506;24.192;2022-12-18T06:01:27;96384.25;;;2.87;100.00
61961;BME280;47923;42.506;24.192;2022-12-18T06:03:53;96362.25;;;2.71;100.00
61961;BME280;47923;42.506;24.192;2022-12-18T06:06:23;96399.84;;;2.98;100.00
61961;BME280;47923;42.506;24.192;2022-12-18T06:08:50;96339.75;;;2.58;100.00
61961;BME280;47923;42.506;24.192;2022-12-18T06:11:18;96405.41;;;3.02;100.00
61961;BME280;47923;42.506;24.192;2022-12-18T06:13:44;96412.25;;;3.08;100.00
61961;BME280;47923;42.506;24.192;2022-12-18T06:16:10;96298.13;;;2.38;100.00
61961;BME280;47923;42.506;24.192;2022-12-18T06:18:35;95965.19;;;0.23;100.00
61961;BME280;47923;42.506;24.192;2022-12-18T06:21:01;96419.66;;;3.35;100.00
61961;BME280;47923;42.506;24.192;2022-12-18T06:23:27;96423.25;;;3.44;100.00
61961;BME280;47923;42.506;24.192;2022-12-18T06:25:53;96420.44;;;3.54;100.00
61961;BME280;47923;42.506;24.192;2022-12-18T06:28:19;96420.28;;;3.65;100.00
61961;BME280;47923;42.506;24.192;2022-12-18T06:30:48;96320.97;;;2.87;100.00
61961;BME280;47923;42.506;24.192;2022-12-18T06:33:14;96438.22;;;3.83;100.00
61961;BME280;47923;42.506;24.192;2022-12-18T06:35:40;96168.44;;;2.24;100.00
61961;BME280;47923;42.506;24.192;2022-12-18T06:38:06;96442.16;;;4.04;100.00
61961;BME280;47923;42.506;24.192;2022-12-18T06:40:31;96406.19;;;3.78;100.00
61961;BME280;47923;42.506;24.192;2022-12-18T06:42:57;96445.97;;;4.31;100.00
61961;BME280;47923;42.506;24.192;2022-12-18T06:45:22;96426.84;;;4.24;100.00
61961;BME280;47923;42.506;24.192;2022-12-18T06:47:48;96461.97;;;4.36;100.00
61961;BME280;47923;42.506;24.192;2022-12-18T06:50:13;96422.41;;;4.33;99.51
61961;BME280;47923;42.506;24.192;2022-12-18T06:52:39;96464.56;;;4.55;99.23
61961;BME280;47923;42.506;24.192;2022-12-18T06:55:10;96472.31;;;4.70;98.42
61961;BME280;47923;42.506;24.192;2022-12-18T06:57:36;96345.97;;;3.99;96.84
61961;BME280;47923;42.506;24.192;2022-12-18T07:00:03;96461.13;;;4.82;96.27
61961;BME280;47923;42.506;24.192;2022-12-18T07:02:29;96463.53;;;4.97;95.52
61961;BME280;47923;42.506;24.192;2022-12-18T07:04:55;96446.66;;;4.96;94.66
61961;BME280;47923;42.506;24.192;2022-12-18T07:07:20;96454.69;;;5.38;94.27
61961;BME280;47923;42.506;24.192;2022-12-18T07:09:45;96411.91;;;5.19;93.68
61961;BME280;47923;42.506;24.192;2022-12-18T07:12:11;96467.72;;;5.67;91.50
61961;BME280;47923;42.506;24.192;2022-12-18T07:14:36;96491.06;;;5.66;90.35
61961;BME280;47923;42.506;24.192;2022-12-18T07:17:02;96474.44;;;5.92;89.56
61961;BME280;47923;42.506;24.192;2022-12-18T07:19:27;96483.22;;;6.06;89.00
61961;BME280;47923;42.506;24.192;2022-12-18T07:21:53;96522.25;;;6.12;87.14
61961;BME280;47923;42.506;24.192;2022-12-18T07:24:18;96430.91;;;5.59;86.63
61961;BME280;47923;42.506;24.192;2022-12-18T07:26:46;96501.84;;;6.02;87.15
61961;BME280;47923;42.506;24.192;2022-12-18T07:29:11;96336.16;;;4.91;85.79
61961;BME280;47923;42.506;24.192;2022-12-18T07:31:36;96424.66;;;5.49;86.14
61961;BME280;47923;42.506;24.192;2022-12-18T07:34:02;96380.09;;;5.17;86.00
61961;BME280;47923;42.506;24.192;2022-12-18T07:36:27;96509.25;;;6.05;84.71
61961;BME280;47923;42.506;24.192;2022-12-18T07:38:53;96514.69;;;6.14;84.52
61961;BME280;47923;42.506;24.192;2022-12-18T07:41:19;96510.28;;;6.32;84.13
61961;BME280;47923;42.506;24.192;2022-12-18T07:43:44;96511.91;;;6.64;83.12
61961;BME280;47923;42.506;24.192;2022-12-18T07:46:10;96535.38;;;6.81;80.45
61961;BME280;47923;42.506;24.192;2022-12-18T07:48:39;96514.03;;;7.07;80.45
61961;BME280;47923;42.506;24.192;2022-12-18T07:51:05;96306.41;;;6.18;79.24
61961;BME280;47923;42.506;24.192;2022-12-18T07:53:32;96462.31;;;7.93;76.49
61961;BME280;47923;42.506;24.192;2022-12-18T07:56:00;96507.56;;;9.33;71.85
61961;BME280;47923;42.506;24.192;2022-12-18T07:58:27;96511.31;;;10.62;67.45
61961;BME280;47923;42.506;24.192;2022-12-18T08:00:53;96438.97;;;10.92;63.97
61961;BME280;47923;42.506;24.192;2022-12-18T08:03:19;96414.03;;;10.62;61.83
61961;BME280;47923;42.506;24.192;2022-12-18T08:05:44;96525.78;;;11.36;61.80
61961;BME280;47923;42.506;24.192;2022-12-18T08:08:10;96415.03;;;10.58;62.32
61961;BME280;47923;42.506;24.192;2022-12-18T08:10:37;96506.75;;;10.75;63.31
61961;BME280;47923;42.506;24.192;2022-12-18T08:13:02;96531.41;;;10.73;66.52
61961;BME280;47923;42.506;24.192;2022-12-18T08:15:28;96529.59;;;10.23;65.84
61961;BME280;47923;42.506;24.192;2022-12-18T08:17:56;96330.13;;;8.20;66.84
61961;BME280;47923;42.506;24.192;2022-12-18T08:20:22;96385.38;;;8.18;68.56
61961;BME280;47923;42.506;24.192;2022-12-18T08:22:47;96528.06;;;8.61;69.91
61961;BME280;47923;42.506;24.192;2022-12-18T08:25:13;96542.50;;;8.39;71.47
61961;BME280;47923;42.506;24.192;2022-12-18T08:27:38;96089.41;;;5.28;71.95
61961;BME280;47923;42.506;24.192;2022-12-18T08:30:04;96401.03;;;7.20;73.27
61961;BME280;47923;42.506;24.192;2022-12-18T08:32:30;96471.97;;;7.59;73.05
61961;BME280;47923;42.506;24.192;2022-12-18T08:34:55;96436.66;;;7.43;74.23
61961;BME280;47923;42.506;24.192;2022-12-18T08:37:20;96478.97;;;7.86;72.42
61961;BME280;47923;42.506;24.192;2022-12-18T08:39:46;96456.63;;;7.86;71.50
61961;BME280;47923;42.506;24.192;2022-12-18T08:42:11;96291.28;;;6.88;71.06
61961;BME280;47923;42.506;24.192;2022-12-18T08:44:55;96554.50;;;8.33;71.53
61961;BME280;47923;42.506;24.192;2022-12-18T08:47:21;96558.50;;;8.53;71.14
61961;BME280;47923;42.506;24.192;2022-12-18T08:49:46;96550.41;;;8.36;71.31
61961;BME280;47923;42.506;24.192;2022-12-18T08:52:12;96412.63;;;7.47;71.95
61961;BME280;47923;42.506;24.192;2022-12-18T08:54:37;96553.28;;;8.39;71.47
61961;BME280;47923;42.506;24.192;2022-12-18T08:57:02;96511.41;;;8.07;71.21
61961;BME280;47923;42.506;24.192;2022-12-18T08:59:28;96535.16;;;8.05;71.37
61961;BME280;47923;42.506;24.192;2022-12-18T09:01:54;96525.66;;;7.99;71.61
61961;BME280;47923;42.506;24.192;2022-12-18T09:04:20;96342.88;;;6.68;72.87
61961;BME280;47923;42.506;24.192;2022-12-18T09:06:45;96560.63;;;8.08;73.40
61961;BME280;47923;42.506;24.192;2022-12-18T09:09:11;96490.91;;;7.54;72.31
61961;BME280;47923;42.506;24.192;2022-12-18T09:11:37;96565.56;;;8.06;72.69
61961;BME280;47923;42.506;24.192;2022-12-18T09:14:02;96567.78;;;8.12;72.02
61961;BME280;47923;42.506;24.192;2022-12-18T09:16:29;96483.81;;;7.58;71.48
61961;BME280;47923;42.506;24.192;2022-12-18T09:18:55;96492.50;;;7.55;71.14
61961;BME280;47923;42.506;24.192;2022-12-18T09:21:26;96561.94;;;8.19;70.49
61961;BME280;47923;42.506;24.192;2022-12-18T09:23:53;96558.13;;;8.28;70.38
61961;BME280;47923;42.506;24.192;2022-12-18T09:26:20;96557.19;;;8.24;70.08
61961;BME280;47923;42.506;24.192;2022-12-18T09:28:45;96503.19;;;8.03;70.42
61961;BME280;47923;42.506;24.192;2022-12-18T09:31:12;96559.91;;;8.50;69.23
61961;BME280;47923;42.506;24.192;2022-12-18T09:33:38;96569.09;;;8.49;68.55
61961;BME280;47923;42.506;24.192;2022-12-18T09:36:05;96541.97;;;8.28;68.89
61961;BME280;47923;42.506;24.192;2022-12-18T09:38:32;96561.03;;;8.49;69.28
61961;BME280;47923;42.506;24.192;2022-12-18T09:43:49;96513.47;;;8.10;69.30
61961;BME280;47923;42.506;24.192;2022-12-18T09:46:20;96184.47;;;5.62;69.07
61961;BME280;47923;42.506;24.192;2022-12-18T09:48:51;96562.47;;;8.38;68.61
61961;BME280;47923;42.506;24.192;2022-12-18T09:51:21;96556.44;;;8.41;69.33
61961;BME280;47923;42.506;24.192;2022-12-18T09:53:53;96515.53;;;8.04;69.39
61961;BME280;47923;42.506;24.192;2022-12-18T09:56:22;96559.72;;;8.29;69.65
61961;BME280;47923;42.506;24.192;2022-12-18T09:58:58;96558.78;;;8.08;69.70
61961;BME280;47923;42.506;24.192;2022-12-18T10:01:25;96549.53;;;8.00;70.48
61961;BME280;47923;42.506;24.192;2022-12-18T10:03:52;96560.47;;;7.87;70.29
61961;BME280;47923;42.506;24.192;2022-12-18T10:06:50;96554.47;;;7.98;70.40
61961;BME280;47923;42.506;24.192;2022-12-18T10:09:33;96546.56;;;8.11;70.65
61961;BME280;47923;42.506;24.192;2022-12-18T10:12:08;96543.72;;;8.24;69.84
61961;BME280;47923;42.506;24.192;2022-12-18T10:17:28;96547.53;;;8.58;69.10
61961;BME280;47923;42.506;24.192;2022-12-18T10:20:09;96547.38;;;8.72;67.70
61961;BME280;47923;42.506;24.192;2022-12-18T10:22:50;96552.84;;;9.10;66.76
61961;BME280;47923;42.506;24.192;2022-12-18T10:28:15;96551.84;;;9.23;66.09
61961;BME280;47923;42.506;24.192;2022-12-18T10:30:42;96551.22;;;9.18;65.42
61961;BME280;47923;42.506;24.192;2022-12-18T10:33:19;96416.38;;;8.50;64.35
61961;BME280;47923;42.506;24.192;2022-12-18T10:35:47;96401.38;;;8.40;65.13
61961;BME280;47923;42.506;24.192;2022-12-18T10:40:52;96546.97;;;9.55;64.27
61961;BME280;47923;42.506;24.192;2022-12-18T10:43:23;96550.47;;;9.55;63.56
61961;BME280;47923;42.506;24.192;2022-12-18T10:51:31;96558.88;;;9.54;62.57
61961;BME280;47923;42.506;24.192;2022-12-18T10:54:04;96558.28;;;9.39;62.06
61961;BME280;47923;42.506;24.192;2022-12-18T10:56:33;96323.38;;;7.88;63.54
61961;BME280;47923;42.506;24.192;2022-12-18T10:59:04;96522.88;;;9.03;63.24
61961;BME280;47923;42.506;24.192;2022-12-18T11:01:46;96547.97;;;8.95;64.43
61961;BME280;47923;42.506;24.192;2022-12-18T11:04:20;96552.22;;;9.13;64.04
61961;BME280;47923;42.506;24.192;2022-12-18T11:07:15;96547.94;;;9.12;63.19
61961;BME280;47923;42.506;24.192;2022-12-18T11:09:41;96554.38;;;9.28;63.82
61961;BME280;47923;42.506;24.192;2022-12-18T11:12:18;96481.56;;;8.90;63.31
61961;BME280;47923;42.506;24.192;2022-12-18T11:14:53;96500.53;;;9.02;61.84
61961;BME280;47923;42.506;24.192;2022-12-18T11:19:52;96355.78;;;8.18;62.41
61961;BME280;47923;42.506;24.192;2022-12-18T11:22:30;96543.84;;;8.97;63.94
61961;BME280;47923;42.506;24.192;2022-12-18T11:27:38;96555.28;;;8.85;64.86
61961;BME280;47923;42.506;24.192;2022-12-18T11:32:47;96550.38;;;8.79;64.85
61961;BME280;47923;42.506;24.192;2022-12-18T11:35:21;96361.72;;;7.42;65.19
61961;BME280;47923;42.506;24.192;2022-12-18T11:37:56;96332.88;;;7.16;65.57
61961;BME280;47923;42.506;24.192;2022-12-18T11:40:35;96555.00;;;8.52;65.79
61961;BME280;47923;42.506;24.192;2022-12-18T11:43:13;96561.03;;;8.41;65.75
61961;BME280;47923;42.506;24.192;2022-12-18T11:45:50;96554.97;;;8.09;66.37
61961;BME280;47923;42.506;24.192;2022-12-18T11:48:27;96421.78;;;6.89;67.10
61961;BME280;47923;42.506;24.192;2022-12-18T11:50:58;96535.47;;;7.86;67.38
61961;BME280;47923;42.506;24.192;2022-12-18T11:53:26;96564.94;;;8.09;67.32
61961;BME280;47923;42.506;24.192;2022-12-18T11:58:47;96566.19;;;7.94;67.16
61961;BME280;47923;42.506;24.192;2022-12-18T12:09:53;96563.00;;;7.92;66.72
61961;BME280;47923;42.506;24.192;2022-12-18T12:26:11;96578.13;;;7.70;66.95
61961;BME280;47923;42.506;24.192;2022-12-18T12:28:56;96584.59;;;7.61;67.71
61961;BME280;47923;42.506;24.192;2022-12-18T12:39:47;96564.63;;;7.13;67.88
61961;BME280;47923;42.506;24.192;2022-12-18T12:42:40;96575.81;;;7.07;67.76
61961;BME280;47923;42.506;24.192;2022-12-18T12:45:52;96564.28;;;7.06;68.04
61961;BME280;47923;42.506;24.192;2022-12-18T12:48:28;96596.19;;;7.30;68.68
61961;BME280;47923;42.506;24.192;2022-12-18T12:50:57;96462.00;;;6.41;68.51
61961;BME280;47923;42.506;24.192;2022-12-18T12:53:31;96609.78;;;7.34;68.27
61961;BME280;47923;42.506;24.192;2022-12-18T12:55:58;96598.16;;;7.16;69.04
61961;BME280;47923;42.506;24.192;2022-12-18T13:04:25;96541.22;;;6.60;69.54
61961;BME280;47923;42.506;24.192;2022-12-18T13:07:05;96565.03;;;6.53;68.99
61961;BME280;47923;42.506;24.192;2022-12-18T13:09:32;96575.06;;;6.61;68.80
61961;BME280;47923;42.506;24.192;2022-12-18T13:12:10;96612.56;;;6.75;68.41
61961;BME280;47923;42.506;24.192;2022-12-18T13:15:21;96630.31;;;6.76;68.75
61961;BME280;47923;42.506;24.192;2022-12-18T13:17:46;96466.16;;;5.66;68.34
61961;BME280;47923;42.506;24.192;2022-12-18T13:20:13;96640.00;;;6.63;68.42
61961;BME280;47923;42.506;24.192;2022-12-18T13:22:48;96465.28;;;5.43;68.47
61961;BME280;47923;42.506;24.192;2022-12-18T13:28:00;96676.50;;;6.64;68.83
61961;BME280;47923;42.506;24.192;2022-12-18T13:43:23;96429.88;;;4.77;69.17
61961;BME280;47923;42.506;24.192;2022-12-18T13:51:21;96704.47;;;6.50;71.42
61961;BME280;47923;42.506;24.192;2022-12-18T13:56:51;96677.16;;;6.20;73.74
61961;BME280;47923;42.506;24.192;2022-12-18T14:01:51;96667.03;;;5.76;80.24
61961;BME280;47923;42.506;24.192;2022-12-18T14:04:28;96718.69;;;5.81;81.64
61961;BME280;47923;42.506;24.192;2022-12-18T14:07:01;96727.31;;;5.78;83.81
61961;BME280;47923;42.506;24.192;2022-12-18T14:09:35;96244.97;;;2.42;84.89
61961;BME280;47923;42.506;24.192;2022-12-18T14:12:01;96724.59;;;5.51;86.96
61961;BME280;47923;42.506;24.192;2022-12-18T14:14:51;96730.81;;;5.46;88.11
61961;BME280;47923;42.506;24.192;2022-12-18T14:17:17;96735.00;;;5.52;87.62
61961;BME280;47923;42.506;24.192;2022-12-18T14:19:49;96384.34;;;3.19;88.13
61961;BME280;47923;42.506;24.192;2022-12-18T14:22:25;96599.16;;;4.55;88.21
61961;BME280;47923;42.506;24.192;2022-12-18T14:25:13;96700.63;;;5.08;89.24
61961;BME280;47923;42.506;24.192;2022-12-18T14:27:50;96659.94;;;4.74;90.23
61961;BME280;47923;42.506;24.192;2022-12-18T14:33:21;96716.63;;;5.13;91.73
61961;BME280;47923;42.506;24.192;2022-12-18T14:36:04;96310.31;;;2.44;91.85
61961;BME280;47923;42.506;24.192;2022-12-18T14:38:31;96756.97;;;5.36;92.19
61961;BME280;47923;42.506;24.192;2022-12-18T14:43:23;96777.50;;;5.26;92.88
61961;BME280;47923;42.506;24.192;2022-12-18T14:45:49;96592.91;;;4.08;92.43
61961;BME280;47923;42.506;24.192;2022-12-18T14:48:38;96769.03;;;5.19;92.46
61961;BME280;47923;42.506;24.192;2022-12-18T14:51:15;96711.38;;;4.70;92.72
61961;BME280;47923;42.506;24.192;2022-12-18T14:53:46;96728.53;;;4.88;92.46
61961;BME280;47923;42.506;24.192;2022-12-18T14:56:24;96770.56;;;5.07;92.67
61961;BME280;47923;42.506;24.192;2022-12-18T14:59:01;96769.56;;;5.03;92.56
61961;BME280;47923;42.506;24.192;2022-12-18T15:03:54;96773.97;;;4.93;92.83
61961;BME280;47923;42.506;24.192;2022-12-18T15:08:58;96786.94;;;4.86;93.21
61961;BME280;47923;42.506;24.192;2022-12-18T15:11:45;96791.25;;;4.82;93.02
61961;BME280;47923;42.506;24.192;2022-12-18T15:16:55;96777.88;;;4.63;93.77
61961;BME280;47923;42.506;24.192;2022-12-18T15:19:22;96566.34;;;3.31;93.61
61961;BME280;47923;42.506;24.192;2022-12-18T15:21:52;96708.28;;;4.21;93.54